createdAt,value
2022-12-03T00:01:48.970Z,16.67
2022-12-03T00:04:51.882Z,15.65
2022-12-03T00:07:54.326Z,17.20
2022-12-03T00:10:56.796Z,16.45
2022-12-03T00:13:58.952Z,15.68
2022-12-03T00:17:01.574Z,16.37
2022-12-03T00:20:05.760Z,16.67
2022-12-03T00:23:08.084Z,17.40
2022-12-03T00:26:10.284Z,15.70
2022-12-03T00:29:12.815Z,17.87
2022-12-03T00:32:15.047Z,16.98
2022-12-03T00:35:17.594Z,17.12
2022-12-03T00:38:19.860Z,17.83
2022-12-03T00:41:22.368Z,18.00
2022-12-03T00:44:24.643Z,16.85
2022-12-03T00:47:27.167Z,17.27
2022-12-03T00:50:29.291Z,17.25
2022-12-03T00:53:31.805Z,18.58
2022-12-03T00:56:34.117Z,17.05
2022-12-03T00:59:36.584Z,18.02
2022-12-03T01:02:38.780Z,17.58
2022-12-03T01:05:41.202Z,16.23
2022-12-03T01:08:44.234Z,18.10
2022-12-03T01:11:46.678Z,16.27
2022-12-03T01:14:49.253Z,15.15
2022-12-03T01:17:54.184Z,17.52
2022-12-03T01:20:56.285Z,17.17
2022-12-03T01:23:58.865Z,17.52
2022-12-03T01:27:01.217Z,18.17
2022-12-03T01:30:04.808Z,16.65
2022-12-03T01:33:07.494Z,17.92
2022-12-03T01:36:09.927Z,16.58
2022-12-03T01:39:12.078Z,17.95
2022-12-03T01:42:21.976Z,17.25
2022-12-03T01:45:24.363Z,17.67
2022-12-03T01:48:35.437Z,17.10
2022-12-03T01:51:37.608Z,17.67
2022-12-03T01:54:53.501Z,18.95
2022-12-03T01:57:59.406Z,16.87
2022-12-03T02:01:07.178Z,16.77
2022-12-03T02:04:15.558Z,18.83
2022-12-03T02:07:22.078Z,19.23
2022-12-03T02:10:34.637Z,17.55
2022-12-03T02:13:37.720Z,17.60
2022-12-03T02:16:41.798Z,17.08
2022-12-03T02:19:44.586Z,18.10
2022-12-03T02:23:13.560Z,17.92
2022-12-03T02:26:16.067Z,17.80
2022-12-03T02:29:18.546Z,19.05
2022-12-03T02:32:23.467Z,19.73
2022-12-03T02:35:36.480Z,18.15
2022-12-03T02:38:39.839Z,16.83
2022-12-03T02:42:00.993Z,18.52
2022-12-03T02:45:11.402Z,17.08
2022-12-03T02:48:28.304Z,17.02
2022-12-03T02:51:31.291Z,16.58
2022-12-03T02:54:33.729Z,18.75
2022-12-03T02:57:37.937Z,17.35
2022-12-03T03:00:41.288Z,17.67
2022-12-03T03:03:45.481Z,17.83
2022-12-03T03:06:47.932Z,16.30
2022-12-03T03:09:50.648Z,16.30
2022-12-03T03:12:54.998Z,16.90
2022-12-03T03:15:57.499Z,18.20
2022-12-03T03:19:00.111Z,19.12
2022-12-03T03:22:02.550Z,16.58
2022-12-03T03:25:05.883Z,18.52
2022-12-03T03:28:08.942Z,16.12
2022-12-03T03:31:14.241Z,19.15
2022-12-03T03:34:17.492Z,16.87
2022-12-03T03:37:19.868Z,18.42
2022-12-03T03:40:22.392Z,17.05
2022-12-03T03:43:25.288Z,17.40
2022-12-03T03:46:28.720Z,16.95
2022-12-03T03:49:31.291Z,16.83
2022-12-03T03:52:36.251Z,16.33
2022-12-03T03:55:39.498Z,17.33
2022-12-03T03:58:41.981Z,18.92
2022-12-03T04:01:45.551Z,17.15
2022-12-03T04:04:49.020Z,17.50
2022-12-03T04:07:51.557Z,16.48
2022-12-03T04:11:13.005Z,18.00
2022-12-03T04:14:15.218Z,16.15
2022-12-03T04:17:17.673Z,18.08
2022-12-03T04:20:19.776Z,17.27
2022-12-03T04:23:25.000Z,17.92
2022-12-03T04:26:50.353Z,18.02
2022-12-03T04:29:53.322Z,16.62
2022-12-03T04:33:14.162Z,17.98
2022-12-03T04:36:17.036Z,17.60
2022-12-03T04:39:19.818Z,18.55
2022-12-03T04:42:22.260Z,19.33
2022-12-03T04:45:25.483Z,19.10
2022-12-03T04:48:27.938Z,20.33
2022-12-03T04:51:30.151Z,19.75
2022-12-03T04:54:36.348Z,19.80
2022-12-03T04:57:38.453Z,19.40
2022-12-03T05:00:40.831Z,19.50
2022-12-03T05:03:42.953Z,19.67
2022-12-03T05:06:45.879Z,19.12
2022-12-03T05:09:48.091Z,18.70
2022-12-03T05:12:50.463Z,18.30
2022-12-03T05:15:53.584Z,20.52
2022-12-03T05:18:56.271Z,17.55
2022-12-03T05:21:58.458Z,18.00
2022-12-03T05:25:00.928Z,17.92
2022-12-03T05:28:04.096Z,18.50
2022-12-03T05:31:06.820Z,19.02
2022-12-03T05:34:10.090Z,18.58
2022-12-03T05:37:12.507Z,17.40
2022-12-03T05:40:15.406Z,19.40
2022-12-03T05:43:18.061Z,19.45
2022-12-03T05:46:20.498Z,19.20
2022-12-03T05:49:22.945Z,18.65
2022-12-03T05:52:25.166Z,16.45
2022-12-03T05:55:28.000Z,18.17
2022-12-03T05:58:31.285Z,19.10
2022-12-03T06:01:34.495Z,17.55
2022-12-03T06:04:36.881Z,17.67
2022-12-03T06:07:39.830Z,17.40
2022-12-03T06:10:42.443Z,18.75
2022-12-03T06:13:44.790Z,18.45
2022-12-03T06:16:47.329Z,17.90
2022-12-03T06:19:49.514Z,19.02
2022-12-03T06:22:51.953Z,17.20
2022-12-03T06:25:54.105Z,18.30
2022-12-03T06:28:56.829Z,16.95
2022-12-03T06:31:58.930Z,16.85
2022-12-03T06:35:01.413Z,16.85
2022-12-03T06:38:03.539Z,17.45
2022-12-03T06:41:05.968Z,17.95
2022-12-03T06:44:08.098Z,16.55
2022-12-03T06:47:10.539Z,17.12
2022-12-03T06:50:13.753Z,17.83
2022-12-03T06:53:16.534Z,18.12
2022-12-03T06:56:22.046Z,17.52
2022-12-03T06:59:26.787Z,14.13
2022-12-03T07:02:29.033Z,16.98
2022-12-03T07:05:33.814Z,17.33
2022-12-03T07:08:35.966Z,17.10
2022-12-03T07:11:41.378Z,20.33
2022-12-03T07:14:45.887Z,17.87
2022-12-03T07:17:48.509Z,18.95
2022-12-03T07:20:50.814Z,18.33
2022-12-03T07:23:55.269Z,18.45
2022-12-03T07:26:57.534Z,18.67
2022-12-03T07:29:59.984Z,19.48
2022-12-03T07:33:02.380Z,18.75
2022-12-03T07:36:05.075Z,18.02
2022-12-03T07:39:08.319Z,19.95
2022-12-03T07:42:11.036Z,20.30
2022-12-03T07:45:13.226Z,19.40
2022-12-03T07:48:15.634Z,18.52
2022-12-03T07:51:17.818Z,17.80
2022-12-03T07:54:21.547Z,18.62
2022-12-03T07:57:23.835Z,17.62
2022-12-03T08:00:30.852Z,18.92
2022-12-03T08:03:33.262Z,19.33
2022-12-03T08:06:35.561Z,18.27
2022-12-03T08:09:40.129Z,18.75
2022-12-03T08:12:42.561Z,19.50
2022-12-03T08:15:45.397Z,17.83
2022-12-03T08:18:48.614Z,18.48
2022-12-03T08:21:54.044Z,19.90
2022-12-03T08:24:58.806Z,18.73
2022-12-03T08:28:13.146Z,18.87
2022-12-03T08:31:19.896Z,19.98
2022-12-03T08:34:27.281Z,21.30
2022-12-03T08:37:29.910Z,20.35
2022-12-03T08:40:39.491Z,20.27
2022-12-03T08:43:43.792Z,20.58
2022-12-03T08:46:52.794Z,21.30
2022-12-03T08:50:25.620Z,19.98
2022-12-03T08:53:35.158Z,18.75
2022-12-03T08:56:37.554Z,20.75
2022-12-03T08:59:44.181Z,19.60
2022-12-03T09:02:51.348Z,19.85
2022-12-03T09:05:53.773Z,20.55
2022-12-03T09:08:56.099Z,18.75
2022-12-03T09:11:58.599Z,19.65
2022-12-03T09:15:01.735Z,18.98
2022-12-03T09:18:04.276Z,23.42
2022-12-03T09:21:06.457Z,19.52
2022-12-03T09:24:08.958Z,19.73
2022-12-03T09:27:11.093Z,19.77
2022-12-03T09:30:13.773Z,19.45
2022-12-03T09:33:16.004Z,20.73
2022-12-03T09:36:19.007Z,19.60
2022-12-03T09:39:21.141Z,18.90
2022-12-03T09:42:24.701Z,21.98
2022-12-03T09:45:28.014Z,19.85
2022-12-03T09:48:30.626Z,20.45
2022-12-03T09:51:35.476Z,21.10
2022-12-03T09:54:42.766Z,20.17
2022-12-03T09:57:48.392Z,20.23
2022-12-03T10:00:52.330Z,19.25
2022-12-03T10:03:54.968Z,19.30
2022-12-03T10:06:58.811Z,18.65
2022-12-03T10:10:01.281Z,20.17
2022-12-03T10:13:06.345Z,20.33
2022-12-03T10:16:12.140Z,20.90
2022-12-03T10:19:27.603Z,19.70
2022-12-03T10:22:36.703Z,18.50
2022-12-03T10:26:04.953Z,17.60
2022-12-03T10:29:16.978Z,18.23
2022-12-03T10:32:24.234Z,18.73
2022-12-03T10:35:41.511Z,16.92
2022-12-03T10:38:43.781Z,19.90
2022-12-03T10:41:46.301Z,18.90
2022-12-03T10:44:48.600Z,17.52
2022-12-03T10:48:20.135Z,20.12
2022-12-03T10:51:22.453Z,18.15
2022-12-03T10:54:27.383Z,16.98
2022-12-03T10:57:30.663Z,18.08
2022-12-03T11:00:33.090Z,17.87
2022-12-03T11:03:36.794Z,18.05
2022-12-03T11:06:39.303Z,16.40
2022-12-03T11:09:45.079Z,16.60
2022-12-03T11:13:25.571Z,16.87
2022-12-03T11:16:40.076Z,15.85
2022-12-03T11:19:46.791Z,15.13
2022-12-03T11:22:58.985Z,15.93
2022-12-03T11:26:01.685Z,14.05
2022-12-03T11:29:05.332Z,15.40
2022-12-03T11:32:08.690Z,15.13
2022-12-03T11:35:23.002Z,14.75
2022-12-03T11:38:37.720Z,14.07
2022-12-03T11:41:39.872Z,15.00
2022-12-03T11:44:43.128Z,13.55
2022-12-03T11:48:17.330Z,15.68
2022-12-03T11:51:24.188Z,14.65
2022-12-03T11:54:26.615Z,14.65
2022-12-03T11:57:33.950Z,13.65
2022-12-03T12:00:36.154Z,14.50
2022-12-03T12:03:47.511Z,13.60
2022-12-03T12:06:53.299Z,13.55
2022-12-03T12:09:57.255Z,13.13
2022-12-03T12:12:59.751Z,14.55
2022-12-03T12:16:06.966Z,13.85
2022-12-03T12:19:43.004Z,14.55
2022-12-03T12:22:45.410Z,13.13
2022-12-03T12:25:53.766Z,13.27
2022-12-03T12:32:12.081Z,13.38
2022-12-03T12:35:25.693Z,14.25
2022-12-03T12:38:28.745Z,13.38
2022-12-03T12:41:31.279Z,13.68
2022-12-03T12:44:33.390Z,14.43
2022-12-03T12:47:36.912Z,13.48
2022-12-03T12:50:40.394Z,14.50
2022-12-03T12:53:42.985Z,13.65
2022-12-03T12:56:50.517Z,13.48
2022-12-03T12:59:56.002Z,13.38
2022-12-03T13:03:01.270Z,13.77
2022-12-03T13:06:04.185Z,14.75
2022-12-03T13:09:18.898Z,13.57
2022-12-03T13:12:23.485Z,14.15
2022-12-03T13:15:59.917Z,14.75
2022-12-03T13:19:03.014Z,14.95
2022-12-03T13:22:16.040Z,14.07
2022-12-03T13:25:59.244Z,14.57
2022-12-03T13:29:06.198Z,14.48
2022-12-03T13:35:30.155Z,14.38
2022-12-03T13:38:32.562Z,14.23
2022-12-03T13:41:53.516Z,13.93
2022-12-03T13:44:56.442Z,13.75
2022-12-03T13:48:01.085Z,14.60
2022-12-03T13:51:23.885Z,13.50
2022-12-03T13:54:31.274Z,13.43
2022-12-03T13:57:33.697Z,12.85
2022-12-03T14:00:36.047Z,13.57
2022-12-03T14:03:39.634Z,13.85
2022-12-03T14:06:41.922Z,13.57
2022-12-03T14:09:44.929Z,12.90
2022-12-03T14:12:47.106Z,13.25
2022-12-03T14:15:49.506Z,14.05
2022-12-03T14:18:51.627Z,12.82
2022-12-03T14:21:54.066Z,14.23
2022-12-03T14:24:57.644Z,12.63
2022-12-03T14:28:00.872Z,13.38
2022-12-03T14:31:02.989Z,12.90
2022-12-03T14:34:05.478Z,13.60
2022-12-03T14:37:07.733Z,12.57
2022-12-03T14:40:10.579Z,12.55
2022-12-03T14:43:14.777Z,13.18
2022-12-03T14:46:17.221Z,15.07
2022-12-03T14:49:19.370Z,14.05
2022-12-03T14:52:23.067Z,13.90
2022-12-03T14:55:25.259Z,14.10
2022-12-03T14:58:28.009Z,12.95
2022-12-03T15:01:30.178Z,13.50
2022-12-03T15:04:32.730Z,13.95
2022-12-03T15:07:35.017Z,13.30
2022-12-03T15:10:37.502Z,12.98
2022-12-03T15:13:39.747Z,13.05
2022-12-03T15:16:42.495Z,13.18
2022-12-03T15:19:44.657Z,12.70
2022-12-03T15:22:47.357Z,13.55
2022-12-03T15:25:49.542Z,12.88
2022-12-03T15:28:53.031Z,13.07
2022-12-03T15:31:55.323Z,13.95
2022-12-03T15:34:57.843Z,14.02
2022-12-03T15:38:00.550Z,12.77
2022-12-03T15:41:20.930Z,13.73
2022-12-03T15:44:23.065Z,13.15
2022-12-03T15:47:25.651Z,12.40
2022-12-03T15:50:27.787Z,11.60
2022-12-03T15:53:30.249Z,12.23
2022-12-03T15:56:32.680Z,12.48
2022-12-03T15:59:35.204Z,12.32
2022-12-03T16:02:37.357Z,11.95
2022-12-03T16:05:42.877Z,12.90
2022-12-03T16:08:45.094Z,12.00
2022-12-03T16:11:48.952Z,12.02
2022-12-03T16:14:51.481Z,12.27
2022-12-03T16:17:53.922Z,11.40
2022-12-03T16:20:58.122Z,11.63
2022-12-03T16:24:01.569Z,13.05
2022-12-03T16:27:03.828Z,12.50
2022-12-03T16:30:07.049Z,13.77
2022-12-03T16:33:09.250Z,12.90
2022-12-03T16:36:14.357Z,12.18
2022-12-03T16:39:16.557Z,13.98
2022-12-03T16:42:19.183Z,13.60
2022-12-03T16:45:27.226Z,14.27
2022-12-03T16:48:30.187Z,13.40
2022-12-03T16:51:32.716Z,13.13
2022-12-03T16:54:39.112Z,13.25
2022-12-03T16:57:41.217Z,14.73
2022-12-03T17:00:43.674Z,14.48
2022-12-03T17:03:45.780Z,14.38
2022-12-03T17:06:48.506Z,15.10
2022-12-03T17:09:50.719Z,14.60
2022-12-03T17:13:09.990Z,14.55
2022-12-03T17:16:12.568Z,15.10
2022-12-03T17:19:15.061Z,15.95
2022-12-03T17:22:17.205Z,16.15
2022-12-03T17:25:19.657Z,15.80
2022-12-03T17:28:21.827Z,15.57
2022-12-03T17:31:24.322Z,15.88
2022-12-03T17:34:26.498Z,15.05
2022-12-03T17:37:28.954Z,16.25
2022-12-03T17:40:31.362Z,18.52
2022-12-03T17:43:34.028Z,17.65
2022-12-03T17:46:36.265Z,18.60
2022-12-03T17:49:38.807Z,16.87
2022-12-03T17:52:41.035Z,17.73
2022-12-03T17:55:45.175Z,18.25
2022-12-03T17:58:47.546Z,17.85
2022-12-03T18:01:50.042Z,16.45
2022-12-03T18:04:52.554Z,17.95
2022-12-03T18:07:54.759Z,18.30
2022-12-03T18:10:57.201Z,16.40
2022-12-03T18:14:01.488Z,18.10
2022-12-03T18:17:03.948Z,17.05
2022-12-03T18:20:07.284Z,19.10
2022-12-03T18:23:09.691Z,18.58
2022-12-03T18:26:12.024Z,18.10
2022-12-03T18:29:14.535Z,19.20
2022-12-03T18:32:28.448Z,18.60
2022-12-03T18:35:32.031Z,18.98
2022-12-03T18:38:34.219Z,19.17
2022-12-03T18:41:36.897Z,18.60
2022-12-03T18:44:39.088Z,19.60
2022-12-03T18:47:42.331Z,18.85
2022-12-03T18:50:45.512Z,19.00
2022-12-03T18:53:49.330Z,18.60
2022-12-03T18:56:51.474Z,19.50
2022-12-03T18:59:54.128Z,18.02
2022-12-03T19:03:04.697Z,19.50
2022-12-03T19:06:17.184Z,17.80
2022-12-03T19:09:21.335Z,19.55
2022-12-03T19:12:23.813Z,19.45
2022-12-03T19:15:25.944Z,19.08
2022-12-03T19:18:29.029Z,18.58
2022-12-03T19:21:33.903Z,18.27
2022-12-03T19:24:36.492Z,19.40
2022-12-03T19:27:40.400Z,19.10
2022-12-03T19:30:42.829Z,20.00
2022-12-03T19:33:46.359Z,17.90
2022-12-03T19:36:49.093Z,19.15
2022-12-03T19:39:54.768Z,18.48
2022-12-03T19:42:57.415Z,18.52
2022-12-03T19:46:08.833Z,19.02
2022-12-03T19:49:12.011Z,18.87
2022-12-03T19:52:15.638Z,19.25
2022-12-03T19:55:19.522Z,19.60
2022-12-03T19:58:21.982Z,18.98
2022-12-03T20:01:27.747Z,18.83
2022-12-03T20:04:30.231Z,19.80
2022-12-03T20:07:32.453Z,18.30
2022-12-03T20:10:35.421Z,19.65
2022-12-03T20:13:37.590Z,19.25
2022-12-03T20:16:41.200Z,19.02
2022-12-03T20:19:43.451Z,18.67
2022-12-03T20:22:46.129Z,20.58
2022-12-03T20:25:48.297Z,20.02
2022-12-03T20:28:53.589Z,20.60
2022-12-03T20:31:55.850Z,21.08
2022-12-03T20:34:58.367Z,19.73
2022-12-03T20:38:00.518Z,21.15
2022-12-03T20:41:05.879Z,19.40
2022-12-03T20:44:10.423Z,20.90
2022-12-03T20:47:12.889Z,19.87
2022-12-03T20:50:15.324Z,20.85
2022-12-03T20:53:24.697Z,20.12
2022-12-03T20:56:34.404Z,20.52
2022-12-03T20:59:36.868Z,19.75
2022-12-03T21:02:39.084Z,19.67
2022-12-03T21:05:43.864Z,20.00
2022-12-03T21:08:46.474Z,19.33
2022-12-03T21:11:49.539Z,20.55
2022-12-03T21:14:51.999Z,19.98
2022-12-03T21:17:54.473Z,19.75
2022-12-03T21:21:00.257Z,21.83
2022-12-03T21:24:05.021Z,19.52
2022-12-03T21:27:07.179Z,21.27
2022-12-03T21:30:09.939Z,19.08
2022-12-03T21:33:12.129Z,19.87
2022-12-03T21:36:16.967Z,20.27
2022-12-03T21:39:19.350Z,19.95
2022-12-03T21:42:35.711Z,19.95
2022-12-03T21:45:40.621Z,20.42
2022-12-03T21:48:44.875Z,19.83
2022-12-03T21:51:47.066Z,19.92
2022-12-03T21:54:52.459Z,20.83
2022-12-03T21:57:54.664Z,19.27
2022-12-03T22:00:57.186Z,21.17
2022-12-03T22:04:00.169Z,21.25
2022-12-03T22:07:02.877Z,21.12
2022-12-03T22:10:08.660Z,22.58
2022-12-03T22:13:10.841Z,21.05
2022-12-03T22:16:17.350Z,21.00
2022-12-03T22:19:25.942Z,20.62
2022-12-03T22:22:28.643Z,21.90
2022-12-03T22:25:30.825Z,20.48
2022-12-03T22:28:34.437Z,21.08
2022-12-03T22:31:36.714Z,22.37
2022-12-03T22:34:40.925Z,20.20
2022-12-03T22:37:43.134Z,22.62
2022-12-03T22:40:47.023Z,21.12
2022-12-03T22:43:49.781Z,21.50
2022-12-03T22:46:52.371Z,22.30
2022-12-03T22:49:55.185Z,22.42
2022-12-03T22:52:57.995Z,22.48
2022-12-03T22:56:00.558Z,20.75
2022-12-03T22:59:03.065Z,21.87
2022-12-03T23:02:05.543Z,21.77
2022-12-03T23:05:08.020Z,21.58
2022-12-03T23:08:19.512Z,22.30
2022-12-03T23:11:22.346Z,20.27
2022-12-03T23:14:24.496Z,22.40
2022-12-03T23:17:26.933Z,22.10
2022-12-03T23:20:30.362Z,19.77
2022-12-03T23:23:33.902Z,20.17
2022-12-03T23:26:38.539Z,20.50
2022-12-03T23:29:41.057Z,19.87
2022-12-03T23:32:44.370Z,21.60
2022-12-03T23:35:46.986Z,20.27
2022-12-03T23:38:49.386Z,22.23
2022-12-03T23:41:54.695Z,21.10
2022-12-03T23:44:59.125Z,21.40
2022-12-03T23:48:01.548Z,20.30
2022-12-03T23:51:13.015Z,21.67
2022-12-03T23:54:15.917Z,20.12
2022-12-03T23:57:18.991Z,21.00
